Time;durP1;ratioP1;P1;durP2;ratioP2;P2;SDS_P1;SDS_P2;PMS_P1;PMS_P2;Temp;Humidity;BMP_temperature;BMP_pressure;BME280_temperature;BME280_humidity;BME280_pressure;Samples;Min_cycle;Max_cycle;Signal;HPM_P1;HPM_P2
2020/12/18 00:00:05;;;;;;;15.07;10.10;;;5.60;99.90;;;;;;5078314;28;20160;-83
2020/12/18 00:02:31;;;;;;;12.10;9.43;;;5.70;99.90;;;;;;5061346;28;20159;-83
2020/12/18 00:04:57;;;;;;;16.00;9.53;;;5.80;99.90;;;;;;5060273;28;20409;-84
2020/12/18 00:07:23;;;;;;;12.33;8.97;;;5.80;99.90;;;;;;5078447;28;20212;-84
2020/12/18 00:09:49;;;;;;;13.33;9.13;;;5.70;99.90;;;;;;5079226;28;20942;-84
2020/12/18 00:12:15;;;;;;;14.70;9.07;;;5.60;99.90;;;;;;5076916;28;20193;-84
2020/12/18 00:14:41;;;;;;;12.37;9.30;;;5.50;99.90;;;;;;5087516;28;20544;-84
2020/12/18 00:17:07;;;;;;;11.90;8.60;;;5.60;99.90;;;;;;5080253;28;20163;-85
2020/12/18 00:19:33;;;;;;;13.50;8.50;;;5.60;99.90;;;;;;5079232;28;20544;-84
2020/12/18 00:22:00;;;;;;;13.00;9.23;;;5.50;99.90;;;;;;5079207;28;20155;-84
2020/12/18 00:24:26;;;;;;;13.80;9.80;;;5.70;99.90;;;;;;5079243;28;20398;-84
2020/12/18 00:26:52;;;;;;;13.70;10.43;;;5.80;99.90;;;;;;5061039;28;20489;-85
2020/12/18 00:29:18;;;;;;;15.23;9.83;;;5.80;99.90;;;;;;5061711;28;20484;-84
2020/12/18 00:31:44;;;;;;;12.10;9.93;;;5.70;99.90;;;;;;5079768;28;20246;-84
2020/12/18 00:34:10;;;;;;;12.13;10.83;;;5.70;99.90;;;;;;5044782;28;20229;-84
2020/12/18 00:36:36;;;;;;;14.33;9.53;;;5.70;99.90;;;;;;5061781;28;20456;-84
2020/12/18 00:39:06;;;;;;;13.83;9.40;;;5.80;99.90;;;;;;5061534;28;20896;-84
2020/12/18 00:41:31;;;;;;;16.33;9.83;;;5.60;99.90;;;;;;5079097;28;20405;-84
2020/12/18 00:43:58;;;;;;;11.37;8.70;;;5.70;99.90;;;;;;5078982;28;20394;-85
2020/12/18 00:46:24;;;;;;;12.83;9.67;;;5.70;99.90;;;;;;5060418;28;20163;-84
2020/12/18 00:48:51;;;;;;;13.40;8.77;;;5.50;99.90;;;;;;5078319;28;20405;-83
2020/12/18 00:51:17;;;;;;;14.57;10.10;;;5.40;99.90;;;;;;5060412;28;20739;-84
2020/12/18 00:53:44;;;;;;;13.13;9.73;;;5.50;99.90;;;;;;5060459;28;20970;-84
2020/12/18 00:56:10;;;;;;;9.90;9.00;;;5.50;99.90;;;;;;5060619;28;20465;-82
2020/12/18 00:58:42;;;;;;;12.80;8.97;;;5.50;99.90;;;;;;5079434;28;20398;-85
2020/12/18 01:01:08;;;;;;;13.20;10.20;;;5.30;99.90;;;;;;5078972;28;20391;-85
2020/12/18 01:03:34;;;;;;;12.87;8.47;;;5.30;99.90;;;;;;5078796;28;20377;-84
2020/12/18 01:06:06;;;;;;;15.13;8.40;;;5.50;99.90;;;;;;5060945;28;20506;-84
2020/12/18 01:08:32;;;;;;;9.97;7.60;;;5.50;99.90;;;;;;5061948;28;20224;-84
2020/12/18 01:11:02;;;;;;;10.90;9.77;;;5.40;99.90;;;;;;5078954;28;20468;-84
2020/12/18 01:13:28;;;;;;;15.57;9.50;;;5.40;99.90;;;;;;5079688;28;20289;-85
2020/12/18 01:15:54;;;;;;;14.27;10.87;;;5.40;99.90;;;;;;5078244;28;20383;-83
2020/12/18 01:18:20;;;;;;;12.57;10.40;;;5.30;99.90;;;;;;5080732;28;20825;-84
2020/12/18 01:20:45;;;;;;;16.50;10.30;;;5.40;99.90;;;;;;5060550;28;20678;-84
2020/12/18 01:23:11;;;;;;;12.50;8.83;;;5.50;99.90;;;;;;5078176;28;20694;-83
2020/12/18 01:25:37;;;;;;;17.97;11.43;;;5.60;99.90;;;;;;5080093;28;20192;-84
2020/12/18 01:28:03;;;;;;;16.03;10.77;;;5.50;99.90;;;;;;5081228;28;20162;-83
2020/12/18 01:30:28;;;;;;;16.50;10.47;;;5.40;99.90;;;;;;5077858;28;20228;-84
2020/12/18 01:32:54;;;;;;;12.00;10.63;;;5.40;99.90;;;;;;5078963;28;20636;-84
2020/12/18 01:35:20;;;;;;;16.50;11.67;;;5.50;99.90;;;;;;5082449;28;20163;-84
2020/12/18 01:37:46;;;;;;;16.80;10.90;;;5.50;99.90;;;;;;5065476;28;20173;-84
2020/12/18 01:40:11;;;;;;;15.70;10.50;;;5.50;99.90;;;;;;5080973;28;20164;-83
2020/12/18 01:42:37;;;;;;;16.03;11.67;;;5.60;99.90;;;;;;5096821;28;20175;-81
2020/12/18 01:45:03;;;;;;;15.70;10.53;;;5.70;99.90;;;;;;5097015;28;20238;-82
2020/12/18 01:47:31;;;;;;;15.13;10.53;;;5.80;99.90;;;;;;5097218;28;20171;-82
2020/12/18 01:49:59;;;;;;;13.27;9.77;;;5.70;99.90;;;;;;5057358;28;20663;-84
2020/12/18 01:52:26;;;;;;;14.77;11.80;;;5.80;99.90;;;;;;5078216;28;20398;-83
2020/12/18 01:54:54;;;;;;;12.80;10.10;;;5.90;99.90;;;;;;5080146;28;20401;-84
2020/12/18 01:57:21;;;;;;;14.17;9.53;;;5.80;99.90;;;;;;5079993;28;20397;-83
2020/12/18 01:59:48;;;;;;;13.60;10.13;;;5.80;99.90;;;;;;5079155;28;20718;-83
2020/12/18 02:02:16;;;;;;;19.20;10.77;;;5.90;99.90;;;;;;5084242;28;20397;-84
2020/12/18 02:04:44;;;;;;;17.03;11.40;;;5.70;99.90;;;;;;5087095;28;20402;-84
2020/12/18 02:07:12;;;;;;;15.37;10.00;;;5.80;99.90;;;;;;5087523;28;20492;-84
2020/12/18 02:09:38;;;;;;;15.00;9.47;;;5.60;99.90;;;;;;5087000;28;20413;-84
2020/12/18 02:12:05;;;;;;;17.63;10.90;;;5.70;99.90;;;;;;5088103;28;20401;-84
2020/12/18 02:14:31;;;;;;;11.33;9.70;;;5.70;99.90;;;;;;5086765;28;20449;-84
2020/12/18 02:16:57;;;;;;;12.47;9.27;;;5.60;99.90;;;;;;5066278;28;20413;-84
2020/12/18 02:19:28;;;;;;;14.00;9.63;;;5.60;99.90;;;;;;5084827;28;20172;-83
2020/12/18 02:21:53;;;;;;;15.20;10.00;;;5.60;99.90;;;;;;5066876;28;20402;-84
2020/12/18 02:24:26;;;;;;;11.90;9.43;;;5.60;99.90;;;;;;5064481;28;20432;-83
2020/12/18 02:26:56;;;;;;;13.80;9.80;;;5.60;99.90;;;;;;5083316;28;20179;-84
2020/12/18 02:29:22;;;;;;;14.23;9.20;;;5.50;99.90;;;;;;5082864;28;20409;-83
2020/12/18 02:31:49;;;;;;;11.40;9.90;;;5.60;99.90;;;;;;5082558;28;20368;-83
2020/12/18 02:34:24;;;;;;;12.37;9.43;;;5.60;99.90;;;;;;5082975;28;20441;-84
2020/12/18 02:36:50;;;;;;;13.30;10.00;;;5.80;99.90;;;;;;5065039;28;20404;-84
2020/12/18 02:39:15;;;;;;;14.47;9.40;;;5.80;99.90;;;;;;5082750;28;20405;-84
2020/12/18 02:41:41;;;;;;;17.67;10.33;;;5.80;99.90;;;;;;5082392;28;20492;-83
2020/12/18 02:44:07;;;;;;;14.03;9.87;;;5.70;99.90;;;;;;5084320;28;20257;-83
2020/12/18 02:46:33;;;;;;;14.77;10.60;;;5.70;99.90;;;;;;5082919;28;20201;-84
2020/12/18 02:48:59;;;;;;;14.20;9.37;;;5.80;99.90;;;;;;5084399;28;20749;-84
2020/12/18 02:51:24;;;;;;;13.50;9.70;;;5.70;99.90;;;;;;5085512;28;20167;-83
2020/12/18 02:53:50;;;;;;;15.37;11.07;;;5.80;99.90;;;;;;5082765;28;20195;-84
2020/12/18 02:56:24;;;;;;;13.50;8.90;;;5.80;99.90;;;;;;5082743;28;20164;-84
2020/12/18 02:58:50;;;;;;;12.93;9.03;;;5.70;99.90;;;;;;5086881;28;20232;-84
2020/12/18 03:01:16;;;;;;;14.97;10.90;;;5.60;99.90;;;;;;5094644;28;20462;-84
2020/12/18 03:03:43;;;;;;;13.30;9.90;;;5.80;99.90;;;;;;5097222;28;20401;-84
2020/12/18 03:06:09;;;;;;;17.60;11.30;;;5.70;99.90;;;;;;5087947;28;20394;-82
2020/12/18 03:08:34;;;;;;;19.17;10.50;;;5.70;99.90;;;;;;5082272;28;20369;-83
2020/12/18 03:11:00;;;;;;;15.90;10.40;;;5.60;99.90;;;;;;5081806;28;20496;-83
2020/12/18 03:13:26;;;;;;;15.07;11.57;;;5.60;99.90;;;;;;5079939;28;20707;-83
2020/12/18 03:15:52;;;;;;;14.30;9.70;;;5.60;99.90;;;;;;5081476;28;20155;-83
2020/12/18 03:18:18;;;;;;;13.60;10.50;;;5.50;99.90;;;;;;5081599;28;20164;-83
2020/12/18 03:20:43;;;;;;;13.20;9.97;;;5.40;99.90;;;;;;5082980;28;20500;-83
2020/12/18 03:23:09;;;;;;;11.67;8.27;;;5.50;99.90;;;;;;5081427;28;20248;-83
2020/12/18 03:25:35;;;;;;;14.23;8.00;;;5.50;99.90;;;;;;5081951;28;20223;-84
2020/12/18 03:28:02;;;;;;;16.40;11.07;;;5.60;99.90;;;;;;5047218;28;20246;-84
2020/12/18 03:30:29;;;;;;;13.20;9.93;;;5.70;99.90;;;;;;5082948;28;20420;-82
2020/12/18 03:32:55;;;;;;;10.13;8.67;;;5.50;99.90;;;;;;5082954;28;20543;-83
2020/12/18 03:35:21;;;;;;;12.23;8.50;;;5.50;99.90;;;;;;5080762;28;20398;-83
2020/12/18 03:37:47;;;;;;;14.93;10.13;;;5.50;99.90;;;;;;5084023;28;20233;-83
2020/12/18 03:40:15;;;;;;;15.20;9.77;;;5.40;99.90;;;;;;5081713;28;20376;-83
2020/12/18 03:42:43;;;;;;;13.40;9.03;;;5.20;99.90;;;;;;5080374;28;20398;-83
2020/12/18 03:45:09;;;;;;;11.47;8.67;;;5.20;99.90;;;;;;5064295;28;20429;-83
2020/12/18 03:47:35;;;;;;;15.57;8.40;;;5.20;99.90;;;;;;5081078;28;20393;-83
2020/12/18 03:50:01;;;;;;;12.80;10.03;;;5.20;99.90;;;;;;5081225;28;20547;-82
2020/12/18 03:52:29;;;;;;;12.17;9.00;;;5.20;99.90;;;;;;5080899;28;20197;-82
2020/12/18 03:54:55;;;;;;;17.73;7.50;;;5.10;99.90;;;;;;5080688;28;20406;-84
2020/12/18 03:57:21;;;;;;;12.30;8.80;;;5.10;99.90;;;;;;5062359;28;20398;-83
2020/12/18 03:59:46;;;;;;;13.43;8.77;;;5.10;99.90;;;;;;5080923;28;20171;-81
2020/12/18 04:02:12;;;;;;;15.57;9.37;;;5.20;99.90;;;;;;5046303;28;20480;-83
2020/12/18 04:04:38;;;;;;;14.97;10.67;;;5.10;99.90;;;;;;5080696;28;20155;-82
2020/12/18 04:07:04;;;;;;;15.47;9.40;;;5.20;99.90;;;;;;5081139;28;20160;-82
2020/12/18 04:09:30;;;;;;;12.70;8.57;;;5.20;99.90;;;;;;5080163;28;20181;-83
2020/12/18 04:11:56;;;;;;;12.53;9.90;;;5.40;99.90;;;;;;5081194;28;20166;-83
2020/12/18 04:14:21;;;;;;;15.70;8.03;;;5.40;99.90;;;;;;5077228;28;20442;-83
2020/12/18 04:16:47;;;;;;;14.67;10.60;;;5.40;99.90;;;;;;5080944;28;20155;-83
2020/12/18 04:19:13;;;;;;;12.17;10.70;;;5.50;99.90;;;;;;5062236;28;20635;-83
2020/12/18 04:21:39;;;;;;;12.03;8.87;;;5.60;99.90;;;;;;5080715;28;20507;-84
2020/12/18 04:24:04;;;;;;;14.37;9.77;;;5.60;99.90;;;;;;5063036;28;20156;-84
2020/12/18 04:26:30;;;;;;;14.13;9.23;;;5.50;99.90;;;;;;5082486;28;20163;-83
2020/12/18 04:28:56;;;;;;;16.87;9.23;;;5.50;99.90;;;;;;5080924;28;20197;-83
2020/12/18 04:31:22;;;;;;;10.50;8.73;;;5.50;99.90;;;;;;5078262;28;20171;-82
2020/12/18 04:33:48;;;;;;;14.20;10.10;;;5.50;99.90;;;;;;5078444;28;20183;-83
2020/12/18 04:36:15;;;;;;;21.43;9.03;;;5.30;99.90;;;;;;5081018;28;20818;-82
2020/12/18 04:38:41;;;;;;;12.00;9.37;;;5.40;99.90;;;;;;5079892;28;20474;-83
2020/12/18 04:41:08;;;;;;;14.47;9.47;;;5.30;99.90;;;;;;5084299;28;20386;-82
2020/12/18 04:43:34;;;;;;;12.77;10.20;;;5.30;99.90;;;;;;5063186;28;20407;-84
2020/12/18 04:46:00;;;;;;;13.97;9.20;;;5.20;99.90;;;;;;5082101;28;20428;-83
2020/12/18 04:48:28;;;;;;;12.07;9.40;;;5.10;99.90;;;;;;5103462;28;20206;-82
2020/12/18 04:50:56;;;;;;;13.73;8.33;;;5.20;99.90;;;;;;5101558;28;20396;-83
2020/12/18 04:53:28;;;;;;;11.17;9.47;;;5.10;99.90;;;;;;5100551;28;20441;-84
2020/12/18 04:55:55;;;;;;;11.53;9.17;;;5.20;99.90;;;;;;5100852;28;20432;-83
2020/12/18 04:58:24;;;;;;;12.63;8.70;;;5.20;99.90;;;;;;5082578;28;20404;-83
2020/12/18 05:00:56;;;;;;;15.50;8.80;;;5.20;99.90;;;;;;5099474;28;20392;-84
2020/12/18 05:03:23;;;;;;;20.63;11.43;;;5.10;99.90;;;;;;5100843;28;20440;-83
2020/12/18 05:05:49;;;;;;;12.63;9.97;;;5.20;99.90;;;;;;5099739;28;20400;-83
2020/12/18 05:08:15;;;;;;;16.87;9.80;;;5.10;99.90;;;;;;5100860;28;20397;-82
2020/12/18 05:10:40;;;;;;;12.23;8.90;;;5.20;99.90;;;;;;5065291;28;20473;-84
2020/12/18 05:13:06;;;;;;;13.43;9.17;;;5.10;99.90;;;;;;5099176;28;20267;-83
2020/12/18 05:15:34;;;;;;;15.43;9.93;;;5.10;99.90;;;;;;5098541;28;20159;-82
2020/12/18 05:18:00;;;;;;;16.37;9.53;;;5.10;99.90;;;;;;5099438;28;20212;-83
2020/12/18 05:20:27;;;;;;;15.03;10.77;;;5.00;99.90;;;;;;5099303;28;20811;-83
2020/12/18 05:22:56;;;;;;;12.80;10.27;;;4.90;99.90;;;;;;5099725;28;20408;-84
2020/12/18 05:25:24;;;;;;;13.40;8.73;;;4.90;99.90;;;;;;5099471;28;20417;-82
2020/12/18 05:27:50;;;;;;;13.20;9.87;;;5.00;99.90;;;;;;5100504;28;20421;-82
2020/12/18 05:30:23;;;;;;;15.03;9.53;;;5.00;99.90;;;;;;5083626;28;20796;-83
2020/12/18 05:32:53;;;;;;;14.43;9.70;;;5.20;99.90;;;;;;5100093;28;20401;-83
2020/12/18 05:35:19;;;;;;;13.70;10.50;;;4.90;99.90;;;;;;5099331;28;20397;-84
2020/12/18 05:37:45;;;;;;;18.47;9.27;;;4.90;99.90;;;;;;5103901;28;20731;-82
2020/12/18 05:40:11;;;;;;;13.57;10.57;;;5.00;99.90;;;;;;5104700;28;20400;-83
2020/12/18 05:42:42;;;;;;;15.13;11.00;;;5.00;99.90;;;;;;5105574;28;20520;-83
2020/12/18 05:45:16;;;;;;;12.47;8.90;;;5.00;99.90;;;;;;5104963;28;20567;-83
2020/12/18 05:47:58;;;;;;;12.20;9.63;;;5.00;99.90;;;;;;5104770;28;20927;-83
2020/12/18 05:50:35;;;;;;;14.07;9.43;;;5.00;99.90;;;;;;5104557;28;20397;-84
2020/12/18 05:53:04;;;;;;;16.03;10.97;;;5.00;99.90;;;;;;5105146;28;20448;-84
2020/12/18 05:55:38;;;;;;;13.20;9.27;;;5.10;99.90;;;;;;5085688;28;20470;-83
2020/12/18 05:58:04;;;;;;;13.20;9.20;;;5.00;99.90;;;;;;5105741;28;20364;-84
2020/12/18 06:00:35;;;;;;;12.27;9.80;;;4.90;99.90;;;;;;5105614;28;20397;-83
2020/12/18 06:03:07;;;;;;;11.83;9.67;;;5.00;99.90;;;;;;5085430;28;20413;-83
2020/12/18 06:05:37;;;;;;;12.23;8.53;;;4.90;99.90;;;;;;5104238;28;20426;-84
2020/12/18 06:08:14;;;;;;;20.27;9.40;;;4.90;99.90;;;;;;5104495;28;20396;-84
2020/12/18 06:10:39;;;;;;;11.27;8.67;;;5.00;99.90;;;;;;5104858;28;20397;-83
2020/12/18 06:13:07;;;;;;;12.60;9.40;;;4.90;99.90;;;;;;5105724;28;20775;-84
2020/12/18 06:15:34;;;;;;;12.07;8.80;;;4.80;99.90;;;;;;5086514;28;20151;-84
2020/12/18 06:18:04;;;;;;;17.20;9.40;;;4.70;99.90;;;;;;5086900;28;20392;-83
2020/12/18 06:20:35;;;;;;;16.03;10.17;;;4.80;99.90;;;;;;5103765;28;20467;-82
2020/12/18 06:23:04;;;;;;;12.20;8.10;;;4.80;99.90;;;;;;5103022;28;20431;-84
2020/12/18 06:25:30;;;;;;;14.33;8.20;;;4.80;99.90;;;;;;5105540;28;20529;-83
2020/12/18 06:28:00;;;;;;;12.73;8.23;;;4.70;99.90;;;;;;5102666;28;20432;-84
2020/12/18 06:30:27;;;;;;;10.83;8.50;;;4.60;99.90;;;;;;5090173;28;20886;-84
2020/12/18 06:32:53;;;;;;;14.77;10.83;;;4.50;99.90;;;;;;5093195;28;20506;-83
2020/12/18 06:35:29;;;;;;;15.43;9.93;;;4.50;99.90;;;;;;5098397;28;20417;-83
2020/12/18 06:37:57;;;;;;;11.77;9.10;;;4.50;99.90;;;;;;5096393;28;20464;-83
2020/12/18 06:40:28;;;;;;;12.37;7.87;;;4.40;99.90;;;;;;5103347;28;20416;-84
2020/12/18 06:42:56;;;;;;;10.50;7.33;;;4.50;99.90;;;;;;5099880;28;20427;-84
2020/12/18 06:45:22;;;;;;;12.33;8.63;;;4.50;99.90;;;;;;5096094;28;20436;-84
2020/12/18 06:47:48;;;;;;;16.50;8.40;;;4.50;99.90;;;;;;5089595;28;20970;-84
2020/12/18 06:50:15;;;;;;;10.73;8.47;;;4.60;99.90;;;;;;5089282;28;20496;-84
2020/12/18 06:52:50;;;;;;;12.50;9.33;;;4.60;99.90;;;;;;5109582;28;20253;-84
2020/12/18 06:55:35;;;;;;;13.90;9.60;;;4.80;99.90;;;;;;5107889;28;20823;-85
2020/12/18 06:58:24;;;;;;;9.73;6.83;;;4.70;99.90;;;;;;5096378;28;20402;-84
2020/12/18 07:00:52;;;;;;;9.50;7.60;;;4.40;99.90;;;;;;5089023;28;20414;-84
2020/12/18 07:03:35;;;;;;;9.60;7.67;;;4.50;99.90;;;;;;5099154;28;20429;-84
2020/12/18 07:06:04;;;;;;;13.33;7.83;;;4.30;99.90;;;;;;5094395;28;20431;-84
2020/12/18 07:08:32;;;;;;;14.43;8.80;;;4.30;99.90;;;;;;5114678;28;20432;-82
2020/12/18 07:11:03;;;;;;;10.90;8.67;;;4.10;99.90;;;;;;5115790;28;20397;-83
2020/12/18 07:13:30;;;;;;;12.00;8.90;;;4.10;99.90;;;;;;5112367;28;20456;-84
2020/12/18 07:16:00;;;;;;;12.47;7.13;;;4.00;99.90;;;;;;5097580;28;20429;-83
2020/12/18 07:18:28;;;;;;;12.13;9.50;;;4.10;99.90;;;;;;5084962;28;20411;-84
2020/12/18 07:21:00;;;;;;;11.87;8.10;;;4.00;99.90;;;;;;5103969;28;20464;-84
2020/12/18 07:23:28;;;;;;;12.53;9.50;;;3.90;99.90;;;;;;5062615;28;20539;-83
2020/12/18 07:25:55;;;;;;;9.60;7.60;;;3.90;99.90;;;;;;5085461;28;20482;-83
2020/12/18 07:28:22;;;;;;;14.63;9.73;;;4.00;99.90;;;;;;5092076;28;20433;-83
2020/12/18 07:30:50;;;;;;;17.30;8.43;;;4.00;99.90;;;;;;5101125;28;20386;-83
2020/12/18 07:33:18;;;;;;;11.07;8.37;;;3.90;99.90;;;;;;5080246;28;20463;-83
2020/12/18 07:35:46;;;;;;;13.97;9.30;;;3.80;99.90;;;;;;5085677;28;20463;-83
2020/12/18 07:38:16;;;;;;;12.50;8.23;;;3.80;99.90;;;;;;5104899;28;20412;-83
2020/12/18 07:40:42;;;;;;;11.30;7.67;;;3.80;99.90;;;;;;5109119;28;20823;-83
2020/12/18 07:43:10;;;;;;;15.63;9.00;;;3.90;99.90;;;;;;5106842;28;20925;-84
2020/12/18 07:45:39;;;;;;;12.23;9.00;;;4.00;99.90;;;;;;5099543;28;20428;-84
2020/12/18 07:48:25;;;;;;;14.77;9.10;;;4.10;99.90;;;;;;5076683;28;20733;-82
2020/12/18 07:51:06;;;;;;;19.90;8.87;;;4.00;99.90;;;;;;5088318;28;20534;-82
2020/12/18 07:53:34;;;;;;;12.83;9.53;;;4.10;99.90;;;;;;5094408;28;20464;-83
2020/12/18 07:56:06;;;;;;;12.30;7.60;;;4.20;99.90;;;;;;5079409;28;20435;-82
2020/12/18 07:58:36;;;;;;;11.63;8.80;;;4.10;99.90;;;;;;5079165;28;20436;-83
2020/12/18 08:01:08;;;;;;;16.23;10.33;;;4.00;99.90;;;;;;5056247;28;20429;-83
2020/12/18 08:03:36;;;;;;;14.87;9.37;;;4.20;99.90;;;;;;5091768;28;20471;-84
2020/12/18 08:06:04;;;;;;;15.97;9.53;;;4.10;99.90;;;;;;5106426;28;20428;-82
2020/12/18 08:08:31;;;;;;;15.00;10.23;;;4.30;99.90;;;;;;5087612;28;20962;-83
2020/12/18 08:11:02;;;;;;;22.13;11.87;;;4.30;99.90;;;;;;5087791;28;20427;-82
2020/12/18 08:13:29;;;;;;;16.80;9.27;;;4.40;99.90;;;;;;5080664;28;20551;-81
2020/12/18 08:16:14;;;;;;;23.07;12.90;;;4.50;99.90;;;;;;5051244;28;20437;-82
2020/12/18 08:18:45;;;;;;;12.23;8.43;;;4.60;99.90;;;;;;5071484;28;20521;-81
2020/12/18 08:21:11;;;;;;;11.13;7.53;;;4.50;99.90;;;;;;5075655;28;20508;-83
2020/12/18 08:23:44;;;;;;;11.30;9.20;;;4.20;99.90;;;;;;5059490;28;20472;-83
2020/12/18 08:26:11;;;;;;;12.53;8.60;;;4.30;99.90;;;;;;5072171;28;20420;-83
2020/12/18 08:28:38;;;;;;;18.50;11.33;;;4.30;99.90;;;;;;5085891;28;20421;-83
2020/12/18 08:31:08;;;;;;;15.17;9.70;;;4.20;99.90;;;;;;5084608;28;20511;-83
2020/12/18 08:33:36;;;;;;;12.47;9.80;;;4.20;99.90;;;;;;5033761;28;20457;-82
2020/12/18 08:36:06;;;;;;;10.67;8.20;;;4.30;99.90;;;;;;5070668;28;20434;-83
2020/12/18 08:38:32;;;;;;;24.70;11.20;;;4.30;99.90;;;;;;5099333;28;20430;-80
2020/12/18 08:40:59;;;;;;;15.87;10.20;;;4.30;99.90;;;;;;5070325;28;20411;-82
2020/12/18 08:43:25;;;;;;;19.30;13.30;;;4.20;99.90;;;;;;5081980;28;20205;-82
2020/12/18 08:45:51;;;;;;;18.70;11.97;;;4.30;99.90;;;;;;5060548;28;20424;-82
2020/12/18 08:48:20;;;;;;;14.63;9.20;;;4.10;99.90;;;;;;5090182;28;20432;-81
2020/12/18 08:50:47;;;;;;;14.03;9.80;;;4.10;99.90;;;;;;5085660;28;20448;-82
2020/12/18 08:53:15;;;;;;;26.43;11.70;;;4.10;99.90;;;;;;5072653;28;20461;-82
2020/12/18 08:55:41;;;;;;;20.33;13.80;;;4.20;99.90;;;;;;5090641;28;20441;-84
2020/12/18 08:58:09;;;;;;;23.73;13.60;;;4.20;99.90;;;;;;5088168;28;20482;-82
2020/12/18 09:00:35;;;;;;;21.50;13.87;;;4.20;99.90;;;;;;5072258;28;20490;-83
2020/12/18 09:03:02;;;;;;;17.97;9.70;;;4.30;99.90;;;;;;5091147;28;20585;-82
2020/12/18 09:05:33;;;;;;;17.17;11.33;;;4.40;99.90;;;;;;5088528;28;20437;-82
2020/12/18 09:08:01;;;;;;;18.10;9.80;;;4.40;99.90;;;;;;5094771;28;20466;-83
2020/12/18 09:10:36;;;;;;;11.87;8.83;;;4.50;99.90;;;;;;5086567;28;20428;-85
2020/12/18 09:13:20;;;;;;;12.97;9.53;;;4.40;99.90;;;;;;5079869;28;20934;-83
2020/12/18 09:15:49;;;;;;;16.20;11.37;;;4.50;99.90;;;;;;5066955;28;20454;-83
2020/12/18 09:18:23;;;;;;;15.20;10.57;;;4.30;99.90;;;;;;5098703;28;20416;-82
2020/12/18 09:20:49;;;;;;;13.97;9.73;;;4.40;99.90;;;;;;5078813;28;20472;-83
2020/12/18 09:23:17;;;;;;;18.17;11.43;;;4.50;99.90;;;;;;5098157;28;20408;-83
2020/12/18 09:25:51;;;;;;;17.10;9.87;;;4.50;99.90;;;;;;5083397;28;20431;-84
2020/12/18 09:28:18;;;;;;;22.20;11.83;;;4.40;99.90;;;;;;5088513;28;20431;-83
2020/12/18 09:30:50;;;;;;;19.10;12.70;;;4.40;99.90;;;;;;5098571;28;20417;-84
2020/12/18 09:33:26;;;;;;;16.60;11.13;;;4.60;99.90;;;;;;5090164;28;20920;-85
2020/12/18 09:36:03;;;;;;;19.23;12.50;;;4.70;99.90;;;;;;5087184;28;20814;-84
2020/12/18 09:38:44;;;;;;;20.90;12.83;;;4.60;99.90;;;;;;5091041;28;20444;-84
2020/12/18 09:41:12;;;;;;;20.80;12.80;;;4.70;99.90;;;;;;5087049;28;20936;-84
2020/12/18 09:43:38;;;;;;;24.53;11.13;;;4.60;99.90;;;;;;5086647;28;20424;-84
2020/12/18 09:46:11;;;;;;;15.43;11.30;;;4.70;99.90;;;;;;5075393;28;20419;-84
2020/12/18 09:48:38;;;;;;;14.67;11.27;;;4.60;99.90;;;;;;5081767;28;20468;-84
2020/12/18 09:51:04;;;;;;;13.40;9.70;;;4.60;99.90;;;;;;5045130;28;20446;-84
2020/12/18 09:53:29;;;;;;;24.30;12.00;;;4.60;99.90;;;;;;5046363;28;20475;-84
2020/12/18 09:55:55;;;;;;;14.27;10.00;;;4.80;99.90;;;;;;5087345;28;20503;-84
2020/12/18 09:58:22;;;;;;;9.83;7.80;;;4.80;99.90;;;;;;5076259;28;20226;-83
2020/12/18 10:00:48;;;;;;;17.10;10.80;;;5.00;99.90;;;;;;5094058;28;20202;-84
2020/12/18 10:03:17;;;;;;;21.83;12.37;;;5.20;99.90;;;;;;5092021;28;20445;-83
2020/12/18 10:05:45;;;;;;;14.83;10.00;;;5.20;99.90;;;;;;5107126;28;20411;-83
2020/12/18 10:08:17;;;;;;;21.20;10.17;;;5.20;99.90;;;;;;5053043;28;20464;-84
2020/12/18 10:10:44;;;;;;;17.83;11.70;;;5.30;99.90;;;;;;5089816;28;20411;-82
2020/12/18 10:13:10;;;;;;;17.07;9.10;;;5.10;99.90;;;;;;5066210;28;20865;-83
2020/12/18 10:15:36;;;;;;;14.10;9.40;;;5.20;99.90;;;;;;5096152;28;20490;-83
2020/12/18 10:18:02;;;;;;;16.20;11.77;;;5.00;99.90;;;;;;5094674;28;20440;-83
2020/12/18 10:20:27;;;;;;;13.60;8.37;;;5.20;99.90;;;;;;5100961;28;20241;-83
2020/12/18 10:22:53;;;;;;;21.43;10.70;;;5.20;99.90;;;;;;5086948;28;20408;-82
2020/12/18 10:25:24;;;;;;;13.07;9.53;;;5.00;99.90;;;;;;5073679;28;20501;-81
2020/12/18 10:27:50;;;;;;;19.60;12.03;;;4.90;99.90;;;;;;5054737;28;20480;-84
2020/12/18 10:30:16;;;;;;;14.17;9.83;;;4.80;99.90;;;;;;5100514;28;20431;-83
2020/12/18 10:32:42;;;;;;;20.27;13.23;;;4.90;99.90;;;;;;5090599;28;20186;-84
2020/12/18 10:35:09;;;;;;;15.07;11.87;;;4.80;99.90;;;;;;5100632;28;20345;-82
2020/12/18 10:37:35;;;;;;;15.23;9.63;;;4.80;99.90;;;;;;5089727;28;20478;-84
2020/12/18 10:40:02;;;;;;;20.67;11.63;;;4.80;99.90;;;;;;5072668;28;20494;-84
2020/12/18 10:42:32;;;;;;;18.60;11.70;;;4.60;99.90;;;;;;5084362;28;20415;-84
2020/12/18 10:44:57;;;;;;;19.10;11.13;;;4.80;99.90;;;;;;5092823;28;20417;-84
2020/12/18 10:47:23;;;;;;;15.90;10.93;;;4.80;99.90;;;;;;5077352;28;20425;-84
2020/12/18 10:49:49;;;;;;;13.43;8.47;;;4.80;99.90;;;;;;5076330;28;20238;-83
2020/12/18 10:52:15;;;;;;;14.00;9.93;;;4.80;99.90;;;;;;5097896;28;20231;-83
2020/12/18 10:54:41;;;;;;;14.53;10.73;;;4.60;99.90;;;;;;5086742;28;20203;-83
2020/12/18 10:57:07;;;;;;;10.13;8.07;;;4.60;99.90;;;;;;5089095;28;20251;-83
2020/12/18 10:59:33;;;;;;;16.40;10.63;;;4.70;99.90;;;;;;5095680;28;20892;-83
2020/12/18 11:02:00;;;;;;;12.90;9.53;;;4.90;99.90;;;;;;5096938;28;20170;-84
2020/12/18 11:04:26;;;;;;;15.40;10.20;;;5.00;99.90;;;;;;5074965;28;20906;-84
2020/12/18 11:06:53;;;;;;;11.60;8.50;;;5.10;99.90;;;;;;5084602;28;20408;-84
2020/12/18 11:09:19;;;;;;;11.23;8.90;;;5.20;99.90;;;;;;5088073;28;20412;-84
2020/12/18 11:11:49;;;;;;;15.87;9.00;;;5.00;99.90;;;;;;5076888;28;20916;-83
2020/12/18 11:14:14;;;;;;;15.80;11.07;;;5.40;99.90;;;;;;5107330;28;20466;-84
2020/12/18 11:16:40;;;;;;;14.23;10.30;;;5.40;99.90;;;;;;5097018;28;20961;-84
2020/12/18 11:19:07;;;;;;;10.90;8.73;;;5.40;99.90;;;;;;5075472;28;20179;-84
2020/12/18 11:21:37;;;;;;;12.27;8.33;;;5.70;99.90;;;;;;5101496;28;20407;-82
2020/12/18 11:24:05;;;;;;;10.70;8.20;;;5.90;99.90;;;;;;5072752;28;20416;-84
2020/12/18 11:26:30;;;;;;;12.97;8.63;;;5.80;99.90;;;;;;5081254;28;20404;-83
2020/12/18 11:28:56;;;;;;;12.03;7.93;;;5.90;99.90;;;;;;5103582;28;20462;-84
2020/12/18 11:31:22;;;;;;;10.90;8.33;;;6.20;99.90;;;;;;5096382;28;20174;-83
2020/12/18 11:33:48;;;;;;;10.73;7.40;;;6.50;99.90;;;;;;5076751;28;20220;-84
2020/12/18 11:36:13;;;;;;;9.13;7.90;;;6.20;99.90;;;;;;5074380;28;20175;-83
2020/12/18 11:38:39;;;;;;;12.00;8.00;;;6.30;99.90;;;;;;5076786;28;20186;-82
2020/12/18 11:41:05;;;;;;;13.30;10.00;;;6.20;99.90;;;;;;5075745;28;20546;-83
2020/12/18 11:43:31;;;;;;;13.57;10.07;;;6.00;99.90;;;;;;5096561;28;20472;-83
2020/12/18 11:45:59;;;;;;;12.83;8.67;;;6.00;99.90;;;;;;5068115;28;20187;-84
2020/12/18 11:48:24;;;;;;;10.87;7.77;;;6.20;99.90;;;;;;5095766;28;20191;-84
2020/12/18 11:50:50;;;;;;;11.00;8.00;;;6.40;99.90;;;;;;5077446;28;20453;-83
2020/12/18 11:53:16;;;;;;;10.07;8.60;;;6.80;99.90;;;;;;5080777;28;20234;-83
2020/12/18 11:55:42;;;;;;;13.00;7.97;;;6.40;99.90;;;;;;5069755;28;20418;-83
2020/12/18 11:58:11;;;;;;;8.57;7.67;;;6.60;99.90;;;;;;5075042;28;20218;-83
2020/12/18 12:00:37;;;;;;;13.10;8.47;;;6.40;99.90;;;;;;5110713;28;20466;-83
2020/12/18 12:03:03;;;;;;;9.20;8.10;;;6.40;99.90;;;;;;5084731;28;20391;-83
2020/12/18 12:05:30;;;;;;;18.23;10.60;;;6.10;99.90;;;;;;5090395;28;20198;-83
2020/12/18 12:07:56;;;;;;;9.20;6.87;;;6.20;99.90;;;;;;5069641;28;20905;-83
2020/12/18 12:10:21;;;;;;;8.13;7.33;;;6.00;99.90;;;;;;5089154;28;20421;-83
2020/12/18 12:12:47;;;;;;;9.20;6.47;;;6.80;99.90;;;;;;5083262;28;20190;-84
2020/12/18 12:15:16;;;;;;;10.73;7.37;;;6.40;99.90;;;;;;5070853;28;20178;-84
2020/12/18 12:17:42;;;;;;;14.37;7.87;;;6.40;99.90;;;;;;5044346;28;20195;-81
2020/12/18 12:20:12;;;;;;;11.07;9.07;;;6.10;99.90;;;;;;5060199;28;20454;-82
2020/12/18 12:22:41;;;;;;;8.80;7.10;;;6.30;99.90;;;;;;5053394;28;20446;-81
2020/12/18 12:25:07;;;;;;;11.13;8.10;;;6.10;99.90;;;;;;5057897;28;20451;-78
2020/12/18 12:27:33;;;;;;;9.97;8.30;;;6.20;99.90;;;;;;5037918;28;20992;-81
2020/12/18 12:30:01;;;;;;;8.63;6.23;;;6.40;99.90;;;;;;5047075;28;20229;-81
2020/12/18 12:32:28;;;;;;;8.80;7.90;;;6.20;99.90;;;;;;5064869;28;20554;-80
2020/12/18 12:34:54;;;;;;;12.20;8.30;;;6.30;99.90;;;;;;5038007;28;20539;-81
2020/12/18 12:37:20;;;;;;;13.03;7.97;;;6.30;99.90;;;;;;5073318;28;20849;-82
2020/12/18 12:39:48;;;;;;;17.03;8.03;;;6.30;99.90;;;;;;5074571;28;20423;-81
2020/12/18 12:42:17;;;;;;;12.00;7.70;;;6.30;99.90;;;;;;5053632;28;20512;-81
2020/12/18 12:44:43;;;;;;;25.00;8.57;;;6.60;99.90;;;;;;5032951;28;20438;-81